sensor_id;sensor_type;location;lat;lon;timestamp;P1;durP1;ratioP1;P2;durP2;ratioP2
40533;SDS011;26233;51.894;10.192;2023-04-25T00:02:00;3.30;;;3.00;;
40533;SDS011;26233;51.894;10.192;2023-04-25T00:04:28;5.00;;;3.20;;
40533;SDS011;26233;51.894;10.192;2023-04-25T00:06:58;4.43;;;3.17;;
40533;SDS011;26233;51.894;10.192;2023-04-25T00:09:29;4.13;;;2.90;;
40533;SDS011;26233;51.894;10.192;2023-04-25T00:11:56;4.57;;;3.20;;
40533;SDS011;26233;51.894;10.192;2023-04-25T00:14:23;4.90;;;3.10;;
40533;SDS011;26233;51.894;10.192;2023-04-25T00:16:50;3.40;;;2.77;;
40533;SDS011;26233;51.894;10.192;2023-04-25T00:19:18;6.23;;;3.00;;
40533;SDS011;26233;51.894;10.192;2023-04-25T00:21:45;4.03;;;2.97;;
40533;SDS011;26233;51.894;10.192;2023-04-25T00:24:13;4.40;;;3.27;;
40533;SDS011;26233;51.894;10.192;2023-04-25T00:26:41;4.63;;;3.47;;
40533;SDS011;26233;51.894;10.192;2023-04-25T00:29:08;3.40;;;2.83;;
40533;SDS011;26233;51.894;10.192;2023-04-25T00:31:35;4.37;;;3.17;;
40533;SDS011;26233;51.894;10.192;2023-04-25T00:34:02;4.97;;;3.53;;
40533;SDS011;26233;51.894;10.192;2023-04-25T00:36:29;5.97;;;3.77;;
40533;SDS011;26233;51.894;10.192;2023-04-25T00:38:56;5.03;;;3.37;;
40533;SDS011;26233;51.894;10.192;2023-04-25T00:41:23;4.07;;;3.13;;
40533;SDS011;26233;51.894;10.192;2023-04-25T00:43:53;4.80;;;2.90;;
40533;SDS011;26233;51.894;10.192;2023-04-25T00:46:21;4.57;;;3.33;;
40533;SDS011;26233;51.894;10.192;2023-04-25T00:48:48;5.33;;;3.23;;
40533;SDS011;26233;51.894;10.192;2023-04-25T00:51:16;4.80;;;3.33;;
40533;SDS011;26233;51.894;10.192;2023-04-25T00:53:46;5.90;;;3.70;;
40533;SDS011;26233;51.894;10.192;2023-04-25T00:56:15;4.93;;;3.30;;
40533;SDS011;26233;51.894;10.192;2023-04-25T00:58:42;4.70;;;3.20;;
40533;SDS011;26233;51.894;10.192;2023-04-25T01:01:11;3.97;;;3.33;;
40533;SDS011;26233;51.894;10.192;2023-04-25T01:03:39;4.57;;;3.30;;
40533;SDS011;26233;51.894;10.192;2023-04-25T01:06:07;4.63;;;3.17;;
40533;SDS011;26233;51.894;10.192;2023-04-25T01:08:35;5.03;;;3.27;;
40533;SDS011;26233;51.894;10.192;2023-04-25T01:11:03;3.87;;;3.20;;
40533;SDS011;26233;51.894;10.192;2023-04-25T01:13:31;3.70;;;3.20;;
40533;SDS011;26233;51.894;10.192;2023-04-25T01:15:59;4.40;;;3.37;;
40533;SDS011;26233;51.894;10.192;2023-04-25T01:18:27;4.60;;;3.60;;
40533;SDS011;26233;51.894;10.192;2023-04-25T01:20:54;4.10;;;3.40;;
40533;SDS011;26233;51.894;10.192;2023-04-25T01:23:23;4.20;;;3.13;;
40533;SDS011;26233;51.894;10.192;2023-04-25T01:25:50;4.00;;;3.00;;
40533;SDS011;26233;51.894;10.192;2023-04-25T01:28:17;4.50;;;3.33;;
40533;SDS011;26233;51.894;10.192;2023-04-25T01:30:45;5.80;;;3.47;;
40533;SDS011;26233;51.894;10.192;2023-04-25T01:33:15;3.53;;;3.20;;
40533;SDS011;26233;51.894;10.192;2023-04-25T01:35:43;5.40;;;3.33;;
40533;SDS011;26233;51.894;10.192;2023-04-25T01:38:11;5.03;;;3.60;;
40533;SDS011;26233;51.894;10.192;2023-04-25T01:40:40;4.43;;;3.40;;
40533;SDS011;26233;51.894;10.192;2023-04-25T01:43:08;4.23;;;3.47;;
40533;SDS011;26233;51.894;10.192;2023-04-25T01:45:36;6.43;;;3.80;;
40533;SDS011;26233;51.894;10.192;2023-04-25T01:48:05;5.13;;;3.67;;
40533;SDS011;26233;51.894;10.192;2023-04-25T01:50:32;5.07;;;3.50;;
40533;SDS011;26233;51.894;10.192;2023-04-25T01:52:59;4.10;;;3.50;;
40533;SDS011;26233;51.894;10.192;2023-04-25T01:55:26;5.33;;;3.30;;
40533;SDS011;26233;51.894;10.192;2023-04-25T01:57:55;3.90;;;3.50;;
40533;SDS011;26233;51.894;10.192;2023-04-25T02:00:22;3.90;;;3.20;;
40533;SDS011;26233;51.894;10.192;2023-04-25T02:02:49;4.40;;;3.17;;
40533;SDS011;26233;51.894;10.192;2023-04-25T02:05:18;3.63;;;3.30;;
40533;SDS011;26233;51.894;10.192;2023-04-25T02:07:46;5.70;;;3.60;;
40533;SDS011;26233;51.894;10.192;2023-04-25T02:10:14;4.10;;;3.27;;
40533;SDS011;26233;51.894;10.192;2023-04-25T02:12:41;4.23;;;2.90;;
40533;SDS011;26233;51.894;10.192;2023-04-25T02:15:10;4.00;;;3.47;;
40533;SDS011;26233;51.894;10.192;2023-04-25T02:17:37;5.17;;;3.10;;
40533;SDS011;26233;51.894;10.192;2023-04-25T02:20:04;4.53;;;2.90;;
40533;SDS011;26233;51.894;10.192;2023-04-25T02:22:32;4.37;;;3.13;;
40533;SDS011;26233;51.894;10.192;2023-04-25T02:25:00;4.50;;;3.13;;
40533;SDS011;26233;51.894;10.192;2023-04-25T02:27:29;5.07;;;2.97;;
40533;SDS011;26233;51.894;10.192;2023-04-25T02:29:56;5.07;;;3.07;;
40533;SDS011;26233;51.894;10.192;2023-04-25T02:32:24;3.50;;;3.20;;
40533;SDS011;26233;51.894;10.192;2023-04-25T02:34:52;4.40;;;3.20;;
40533;SDS011;26233;51.894;10.192;2023-04-25T02:37:19;3.93;;;3.00;;
40533;SDS011;26233;51.894;10.192;2023-04-25T02:39:46;5.17;;;3.07;;
40533;SDS011;26233;51.894;10.192;2023-04-25T02:42:13;5.73;;;3.23;;
40533;SDS011;26233;51.894;10.192;2023-04-25T02:44:40;4.07;;;3.40;;
40533;SDS011;26233;51.894;10.192;2023-04-25T02:47:07;5.77;;;3.20;;
40533;SDS011;26233;51.894;10.192;2023-04-25T02:49:38;4.03;;;3.33;;
40533;SDS011;26233;51.894;10.192;2023-04-25T02:52:05;5.23;;;3.17;;
40533;SDS011;26233;51.894;10.192;2023-04-25T02:54:33;3.77;;;2.93;;
40533;SDS011;26233;51.894;10.192;2023-04-25T02:57:01;5.77;;;3.40;;
40533;SDS011;26233;51.894;10.192;2023-04-25T02:59:28;5.17;;;3.50;;
40533;SDS011;26233;51.894;10.192;2023-04-25T03:01:55;4.53;;;3.20;;
40533;SDS011;26233;51.894;10.192;2023-04-25T03:04:22;4.93;;;3.37;;
40533;SDS011;26233;51.894;10.192;2023-04-25T03:06:51;5.60;;;3.30;;
40533;SDS011;26233;51.894;10.192;2023-04-25T03:09:18;4.80;;;3.27;;
40533;SDS011;26233;51.894;10.192;2023-04-25T03:11:45;5.07;;;3.43;;
40533;SDS011;26233;51.894;10.192;2023-04-25T03:14:13;5.60;;;3.60;;
40533;SDS011;26233;51.894;10.192;2023-04-25T03:16:40;4.67;;;3.50;;
40533;SDS011;26233;51.894;10.192;2023-04-25T03:19:07;5.37;;;3.37;;
40533;SDS011;26233;51.894;10.192;2023-04-25T03:21:34;5.53;;;3.93;;
40533;SDS011;26233;51.894;10.192;2023-04-25T03:24:05;3.93;;;3.10;;
40533;SDS011;26233;51.894;10.192;2023-04-25T03:26:32;4.43;;;3.47;;
40533;SDS011;26233;51.894;10.192;2023-04-25T03:28:59;3.93;;;2.93;;
40533;SDS011;26233;51.894;10.192;2023-04-25T03:31:26;4.63;;;3.30;;
40533;SDS011;26233;51.894;10.192;2023-04-25T03:33:53;4.37;;;3.73;;
40533;SDS011;26233;51.894;10.192;2023-04-25T03:36:20;5.73;;;3.63;;
40533;SDS011;26233;51.894;10.192;2023-04-25T03:38:47;3.93;;;3.50;;
40533;SDS011;26233;51.894;10.192;2023-04-25T03:41:16;4.17;;;3.70;;
40533;SDS011;26233;51.894;10.192;2023-04-25T03:43:43;3.87;;;3.57;;
40533;SDS011;26233;51.894;10.192;2023-04-25T03:46:10;6.67;;;3.73;;
40533;SDS011;26233;51.894;10.192;2023-04-25T03:48:38;4.00;;;3.50;;
40533;SDS011;26233;51.894;10.192;2023-04-25T03:51:05;4.50;;;4.03;;
40533;SDS011;26233;51.894;10.192;2023-04-25T03:53:32;4.50;;;4.10;;
40533;SDS011;26233;51.894;10.192;2023-04-25T03:55:59;5.00;;;4.23;;
40533;SDS011;26233;51.894;10.192;2023-04-25T03:58:28;4.50;;;3.73;;
40533;SDS011;26233;51.894;10.192;2023-04-25T04:00:55;4.10;;;3.70;;
40533;SDS011;26233;51.894;10.192;2023-04-25T04:03:24;4.77;;;4.30;;
40533;SDS011;26233;51.894;10.192;2023-04-25T04:05:51;5.00;;;4.30;;
40533;SDS011;26233;51.894;10.192;2023-04-25T04:08:18;4.37;;;3.97;;
40533;SDS011;26233;51.894;10.192;2023-04-25T04:10:45;3.87;;;3.57;;
40533;SDS011;26233;51.894;10.192;2023-04-25T04:13:13;4.37;;;4.07;;
40533;SDS011;26233;51.894;10.192;2023-04-25T04:15:41;4.60;;;3.97;;
40533;SDS011;26233;51.894;10.192;2023-04-25T04:18:08;4.47;;;4.07;;
40533;SDS011;26233;51.894;10.192;2023-04-25T04:20:35;4.70;;;4.30;;
40533;SDS011;26233;51.894;10.192;2023-04-25T04:23:02;4.23;;;3.83;;
40533;SDS011;26233;51.894;10.192;2023-04-25T04:25:30;4.13;;;3.73;;
40533;SDS011;26233;51.894;10.192;2023-04-25T04:27:57;4.30;;;3.50;;
40533;SDS011;26233;51.894;10.192;2023-04-25T04:30:25;4.00;;;3.27;;
40533;SDS011;26233;51.894;10.192;2023-04-25T04:32:55;3.03;;;2.77;;
40533;SDS011;26233;51.894;10.192;2023-04-25T04:35:22;3.50;;;2.77;;
40533;SDS011;26233;51.894;10.192;2023-04-25T04:37:50;2.73;;;2.53;;
40533;SDS011;26233;51.894;10.192;2023-04-25T04:40:17;2.67;;;2.47;;
40533;SDS011;26233;51.894;10.192;2023-04-25T04:42:45;3.40;;;2.57;;
40533;SDS011;26233;51.894;10.192;2023-04-25T04:45:13;3.70;;;2.60;;
40533;SDS011;26233;51.894;10.192;2023-04-25T04:47:41;3.60;;;2.43;;
40533;SDS011;26233;51.894;10.192;2023-04-25T04:50:10;3.53;;;1.80;;
40533;SDS011;26233;51.894;10.192;2023-04-25T04:52:37;5.47;;;2.37;;
40533;SDS011;26233;51.894;10.192;2023-04-25T04:55:05;3.73;;;2.03;;
40533;SDS011;26233;51.894;10.192;2023-04-25T04:57:33;4.63;;;2.33;;
40533;SDS011;26233;51.894;10.192;2023-04-25T05:00:01;3.00;;;2.03;;
40533;SDS011;26233;51.894;10.192;2023-04-25T05:02:33;4.93;;;2.20;;
40533;SDS011;26233;51.894;10.192;2023-04-25T05:05:00;7.90;;;2.87;;
40533;SDS011;26233;51.894;10.192;2023-04-25T05:07:28;3.73;;;2.10;;
40533;SDS011;26233;51.894;10.192;2023-04-25T05:09:55;5.20;;;2.30;;
40533;SDS011;26233;51.894;10.192;2023-04-25T05:12:22;3.63;;;2.20;;
40533;SDS011;26233;51.894;10.192;2023-04-25T05:14:49;4.17;;;2.53;;
40533;SDS011;26233;51.894;10.192;2023-04-25T05:17:16;5.83;;;2.23;;
40533;SDS011;26233;51.894;10.192;2023-04-25T05:19:43;4.93;;;2.23;;
40533;SDS011;26233;51.894;10.192;2023-04-25T05:22:10;4.77;;;2.20;;
40533;SDS011;26233;51.894;10.192;2023-04-25T05:24:38;4.17;;;2.40;;
40533;SDS011;26233;51.894;10.192;2023-04-25T05:27:05;3.63;;;2.37;;
40533;SDS011;26233;51.894;10.192;2023-04-25T05:29:32;3.73;;;2.10;;
40533;SDS011;26233;51.894;10.192;2023-04-25T05:32:00;5.00;;;2.13;;
40533;SDS011;26233;51.894;10.192;2023-04-25T05:34:27;4.23;;;2.37;;
40533;SDS011;26233;51.894;10.192;2023-04-25T05:36:54;4.23;;;2.30;;
40533;SDS011;26233;51.894;10.192;2023-04-25T05:39:21;5.93;;;2.20;;
40533;SDS011;26233;51.894;10.192;2023-04-25T05:41:49;4.63;;;2.60;;
40533;SDS011;26233;51.894;10.192;2023-04-25T05:44:16;4.13;;;2.37;;
40533;SDS011;26233;51.894;10.192;2023-04-25T05:46:43;3.27;;;2.10;;
40533;SDS011;26233;51.894;10.192;2023-04-25T05:49:10;4.83;;;2.50;;
40533;SDS011;26233;51.894;10.192;2023-04-25T05:51:37;5.90;;;2.70;;
40533;SDS011;26233;51.894;10.192;2023-04-25T05:54:04;5.03;;;2.53;;
40533;SDS011;26233;51.894;10.192;2023-04-25T05:56:31;5.53;;;2.30;;
40533;SDS011;26233;51.894;10.192;2023-04-25T05:59:00;3.60;;;2.30;;
40533;SDS011;26233;51.894;10.192;2023-04-25T06:01:27;4.73;;;2.50;;
40533;SDS011;26233;51.894;10.192;2023-04-25T06:03:54;4.43;;;2.70;;
40533;SDS011;26233;51.894;10.192;2023-04-25T06:06:21;4.93;;;2.23;;
40533;SDS011;26233;51.894;10.192;2023-04-25T06:08:48;5.37;;;2.70;;
40533;SDS011;26233;51.894;10.192;2023-04-25T06:11:15;4.53;;;2.50;;
40533;SDS011;26233;51.894;10.192;2023-04-25T06:13:42;6.67;;;2.80;;
40533;SDS011;26233;51.894;10.192;2023-04-25T06:16:10;4.53;;;2.70;;
40533;SDS011;26233;51.894;10.192;2023-04-25T06:18:37;5.40;;;2.60;;
40533;SDS011;26233;51.894;10.192;2023-04-25T06:21:04;7.93;;;3.00;;
40533;SDS011;26233;51.894;10.192;2023-04-25T06:23:31;4.20;;;2.77;;
40533;SDS011;26233;51.894;10.192;2023-04-25T06:25:58;5.83;;;2.73;;
40533;SDS011;26233;51.894;10.192;2023-04-25T06:28:25;4.77;;;2.43;;
40533;SDS011;26233;51.894;10.192;2023-04-25T06:30:52;5.90;;;2.30;;
40533;SDS011;26233;51.894;10.192;2023-04-25T06:33:21;5.67;;;3.00;;
40533;SDS011;26233;51.894;10.192;2023-04-25T06:35:49;5.47;;;3.10;;
40533;SDS011;26233;51.894;10.192;2023-04-25T06:38:16;5.87;;;2.73;;
40533;SDS011;26233;51.894;10.192;2023-04-25T06:40:43;7.53;;;2.73;;
40533;SDS011;26233;51.894;10.192;2023-04-25T06:43:10;6.00;;;2.67;;
40533;SDS011;26233;51.894;10.192;2023-04-25T06:45:37;7.07;;;2.90;;
40533;SDS011;26233;51.894;10.192;2023-04-25T06:48:04;6.73;;;2.90;;
40533;SDS011;26233;51.894;10.192;2023-04-25T06:50:33;6.40;;;2.60;;
40533;SDS011;26233;51.894;10.192;2023-04-25T06:53:00;7.07;;;2.70;;
40533;SDS011;26233;51.894;10.192;2023-04-25T06:55:27;5.50;;;2.70;;
40533;SDS011;26233;51.894;10.192;2023-04-25T06:57:55;6.23;;;2.73;;
40533;SDS011;26233;51.894;10.192;2023-04-25T07:00:22;5.67;;;3.03;;
40533;SDS011;26233;51.894;10.192;2023-04-25T07:02:49;5.57;;;2.87;;
40533;SDS011;26233;51.894;10.192;2023-04-25T07:05:16;5.37;;;2.77;;
40533;SDS011;26233;51.894;10.192;2023-04-25T07:07:44;6.90;;;2.93;;
40533;SDS011;26233;51.894;10.192;2023-04-25T07:10:14;5.80;;;2.97;;
40533;SDS011;26233;51.894;10.192;2023-04-25T07:12:41;4.50;;;2.37;;
40533;SDS011;26233;51.894;10.192;2023-04-25T07:15:08;4.33;;;2.50;;
40533;SDS011;26233;51.894;10.192;2023-04-25T07:17:36;4.90;;;2.57;;
40533;SDS011;26233;51.894;10.192;2023-04-25T07:20:04;5.10;;;2.50;;
40533;SDS011;26233;51.894;10.192;2023-04-25T07:22:32;6.83;;;3.00;;
40533;SDS011;26233;51.894;10.192;2023-04-25T07:25:01;5.17;;;2.50;;
40533;SDS011;26233;51.894;10.192;2023-04-25T07:27:30;6.40;;;2.63;;
40533;SDS011;26233;51.894;10.192;2023-04-25T07:29:58;4.87;;;2.57;;
40533;SDS011;26233;51.894;10.192;2023-04-25T07:32:25;8.70;;;2.73;;
40533;SDS011;26233;51.894;10.192;2023-04-25T07:34:52;6.67;;;2.80;;
40533;SDS011;26233;51.894;10.192;2023-04-25T07:37:19;5.40;;;2.93;;
40533;SDS011;26233;51.894;10.192;2023-04-25T07:39:46;6.70;;;2.80;;
40533;SDS011;26233;51.894;10.192;2023-04-25T07:42:14;8.07;;;2.97;;
40533;SDS011;26233;51.894;10.192;2023-04-25T07:44:42;5.57;;;2.88;;
40533;SDS011;26233;51.894;10.192;2023-04-25T07:47:09;7.30;;;3.55;;
40533;SDS011;26233;51.894;10.192;2023-04-25T07:49:36;6.18;;;3.63;;
40533;SDS011;26233;51.894;10.192;2023-04-25T07:52:04;5.03;;;3.03;;
40533;SDS011;26233;51.894;10.192;2023-04-25T07:54:33;6.28;;;2.78;;
40533;SDS011;26233;51.894;10.192;2023-04-25T07:57:00;7.50;;;3.40;;
40533;SDS011;26233;51.894;10.192;2023-04-25T07:59:29;5.50;;;3.42;;
40533;SDS011;26233;51.894;10.192;2023-04-25T08:01:56;4.68;;;3.17;;
40533;SDS011;26233;51.894;10.192;2023-04-25T08:04:23;4.47;;;2.72;;
40533;SDS011;26233;51.894;10.192;2023-04-25T08:06:50;5.68;;;2.50;;
40533;SDS011;26233;51.894;10.192;2023-04-25T08:09:18;4.57;;;2.50;;
40533;SDS011;26233;51.894;10.192;2023-04-25T08:11:45;3.65;;;2.42;;
40533;SDS011;26233;51.894;10.192;2023-04-25T08:14:13;4.15;;;2.10;;
40533;SDS011;26233;51.894;10.192;2023-04-25T08:16:42;4.05;;;2.20;;
40533;SDS011;26233;51.894;10.192;2023-04-25T08:19:09;5.75;;;2.13;;
40533;SDS011;26233;51.894;10.192;2023-04-25T08:21:37;5.90;;;2.30;;
40533;SDS011;26233;51.894;10.192;2023-04-25T08:24:04;5.20;;;2.40;;
40533;SDS011;26233;51.894;10.192;2023-04-25T08:26:31;6.82;;;2.40;;
40533;SDS011;26233;51.894;10.192;2023-04-25T08:28:59;4.75;;;2.42;;
40533;SDS011;26233;51.894;10.192;2023-04-25T08:31:26;3.97;;;2.22;;
40533;SDS011;26233;51.894;10.192;2023-04-25T08:33:54;3.78;;;2.10;;
40533;SDS011;26233;51.894;10.192;2023-04-25T08:36:21;4.57;;;2.03;;
40533;SDS011;26233;51.894;10.192;2023-04-25T08:38:49;4.88;;;2.00;;
40533;SDS011;26233;51.894;10.192;2023-04-25T08:41:16;4.03;;;1.88;;
40533;SDS011;26233;51.894;10.192;2023-04-25T08:43:45;3.38;;;1.90;;
40533;SDS011;26233;51.894;10.192;2023-04-25T08:46:15;3.15;;;1.67;;
40533;SDS011;26233;51.894;10.192;2023-04-25T08:48:45;3.25;;;1.70;;
40533;SDS011;26233;51.894;10.192;2023-04-25T08:51:15;4.20;;;2.10;;
40533;SDS011;26233;51.894;10.192;2023-04-25T08:53:50;3.78;;;1.75;;
40533;SDS011;26233;51.894;10.192;2023-04-25T08:56:18;8.15;;;2.28;;
40533;SDS011;26233;51.894;10.192;2023-04-25T08:58:48;4.72;;;1.75;;
40533;SDS011;26233;51.894;10.192;2023-04-25T09:01:16;5.82;;;2.10;;
40533;SDS011;26233;51.894;10.192;2023-04-25T09:03:44;3.63;;;2.15;;
40533;SDS011;26233;51.894;10.192;2023-04-25T09:06:13;6.43;;;2.45;;
40533;SDS011;26233;51.894;10.192;2023-04-25T09:08:42;4.20;;;1.95;;
40533;SDS011;26233;51.894;10.192;2023-04-25T09:11:09;5.10;;;1.90;;
40533;SDS011;26233;51.894;10.192;2023-04-25T09:13:36;4.13;;;2.38;;
40533;SDS011;26233;51.894;10.192;2023-04-25T09:16:03;4.30;;;1.90;;
40533;SDS011;26233;51.894;10.192;2023-04-25T09:18:31;4.97;;;2.03;;
40533;SDS011;26233;51.894;10.192;2023-04-25T09:21:04;4.57;;;2.20;;
40533;SDS011;26233;51.894;10.192;2023-04-25T09:23:39;4.47;;;1.90;;
40533;SDS011;26233;51.894;10.192;2023-04-25T09:26:13;4.25;;;1.77;;
40533;SDS011;26233;51.894;10.192;2023-04-25T09:28:41;2.63;;;1.67;;
40533;SDS011;26233;51.894;10.192;2023-04-25T09:31:09;7.07;;;1.73;;
40533;SDS011;26233;51.894;10.192;2023-04-25T09:33:37;6.63;;;1.67;;
40533;SDS011;26233;51.894;10.192;2023-04-25T09:36:05;2.45;;;1.60;;
40533;SDS011;26233;51.894;10.192;2023-04-25T09:38:41;2.33;;;1.60;;
40533;SDS011;26233;51.894;10.192;2023-04-25T09:41:09;2.78;;;1.30;;
40533;SDS011;26233;51.894;10.192;2023-04-25T09:43:37;2.80;;;1.48;;
40533;SDS011;26233;51.894;10.192;2023-04-25T09:46:07;2.30;;;1.50;;
40533;SDS011;26233;51.894;10.192;2023-04-25T09:48:36;2.85;;;1.63;;
40533;SDS011;26233;51.894;10.192;2023-04-25T09:51:04;2.58;;;1.50;;
40533;SDS011;26233;51.894;10.192;2023-04-25T09:53:32;2.53;;;1.65;;
40533;SDS011;26233;51.894;10.192;2023-04-25T09:56:01;3.30;;;1.70;;
40533;SDS011;26233;51.894;10.192;2023-04-25T09:58:31;3.03;;;1.50;;
40533;SDS011;26233;51.894;10.192;2023-04-25T10:01:00;4.28;;;1.88;;
40533;SDS011;26233;51.894;10.192;2023-04-25T10:03:32;3.00;;;1.88;;
40533;SDS011;26233;51.894;10.192;2023-04-25T10:06:01;4.82;;;1.67;;
40533;SDS011;26233;51.894;10.192;2023-04-25T10:08:31;2.72;;;1.70;;
40533;SDS011;26233;51.894;10.192;2023-04-25T10:11:03;2.50;;;1.65;;
40533;SDS011;26233;51.894;10.192;2023-04-25T10:13:32;2.13;;;1.50;;
40533;SDS011;26233;51.894;10.192;2023-04-25T10:16:01;3.70;;;1.63;;
40533;SDS011;26233;51.894;10.192;2023-04-25T10:18:30;3.05;;;1.77;;
40533;SDS011;26233;51.894;10.192;2023-04-25T10:20:59;2.38;;;1.48;;
40533;SDS011;26233;51.894;10.192;2023-04-25T10:23:29;3.58;;;1.75;;
40533;SDS011;26233;51.894;10.192;2023-04-25T10:25:57;2.53;;;1.63;;
40533;SDS011;26233;51.894;10.192;2023-04-25T10:28:26;3.15;;;1.63;;
40533;SDS011;26233;51.894;10.192;2023-04-25T10:30:56;3.75;;;1.70;;
40533;SDS011;26233;51.894;10.192;2023-04-25T10:33:34;3.03;;;1.50;;
40533;SDS011;26233;51.894;10.192;2023-04-25T10:36:09;3.05;;;1.60;;
40533;SDS011;26233;51.894;10.192;2023-04-25T10:38:37;2.20;;;1.50;;
40533;SDS011;26233;51.894;10.192;2023-04-25T10:41:08;3.72;;;1.60;;
40533;SDS011;26233;51.894;10.192;2023-04-25T10:43:38;3.50;;;1.70;;
40533;SDS011;26233;51.894;10.192;2023-04-25T10:46:14;3.88;;;1.90;;
40533;SDS011;26233;51.894;10.192;2023-04-25T10:48:44;2.60;;;1.70;;
40533;SDS011;26233;51.894;10.192;2023-04-25T10:51:18;2.53;;;1.50;;
40533;SDS011;26233;51.894;10.192;2023-04-25T10:53:56;3.15;;;1.65;;
40533;SDS011;26233;51.894;10.192;2023-04-25T10:56:27;5.88;;;1.90;;
40533;SDS011;26233;51.894;10.192;2023-04-25T10:59:06;4.03;;;1.80;;
40533;SDS011;26233;51.894;10.192;2023-04-25T11:01:36;4.07;;;1.83;;
40533;SDS011;26233;51.894;10.192;2023-04-25T11:04:05;4.05;;;1.90;;
40533;SDS011;26233;51.894;10.192;2023-04-25T11:06:46;4.05;;;2.10;;
40533;SDS011;26233;51.894;10.192;2023-04-25T11:09:27;3.35;;;2.10;;
40533;SDS011;26233;51.894;10.192;2023-04-25T11:11:55;3.88;;;2.25;;
40533;SDS011;26233;51.894;10.192;2023-04-25T11:14:25;4.05;;;2.00;;
40533;SDS011;26233;51.894;10.192;2023-04-25T11:16:52;3.78;;;1.90;;
40533;SDS011;26233;51.894;10.192;2023-04-25T11:19:20;3.60;;;1.90;;
40533;SDS011;26233;51.894;10.192;2023-04-25T11:21:48;3.30;;;1.52;;
40533;SDS011;26233;51.894;10.192;2023-04-25T11:24:15;3.53;;;1.63;;
40533;SDS011;26233;51.894;10.192;2023-04-25T11:26:43;4.13;;;1.90;;
40533;SDS011;26233;51.894;10.192;2023-04-25T11:29:13;2.05;;;1.85;;
40533;SDS011;26233;51.894;10.192;2023-04-25T11:31:44;2.78;;;1.73;;
40533;SDS011;26233;51.894;10.192;2023-04-25T11:34:11;2.97;;;1.60;;
40533;SDS011;26233;51.894;10.192;2023-04-25T11:36:43;2.22;;;1.50;;
40533;SDS011;26233;51.894;10.192;2023-04-25T11:39:12;3.33;;;1.75;;
40533;SDS011;26233;51.894;10.192;2023-04-25T11:41:40;3.38;;;1.80;;
40533;SDS011;26233;51.894;10.192;2023-04-25T11:44:08;2.22;;;1.73;;
40533;SDS011;26233;51.894;10.192;2023-04-25T11:46:35;4.03;;;2.58;;
40533;SDS011;26233;51.894;10.192;2023-04-25T11:49:03;4.43;;;2.13;;
40533;SDS011;26233;51.894;10.192;2023-04-25T11:51:37;3.80;;;1.83;;
40533;SDS011;26233;51.894;10.192;2023-04-25T11:54:05;3.63;;;2.00;;
40533;SDS011;26233;51.894;10.192;2023-04-25T11:56:33;2.80;;;1.90;;
40533;SDS011;26233;51.894;10.192;2023-04-25T11:59:00;2.92;;;1.52;;
40533;SDS011;26233;51.894;10.192;2023-04-25T12:01:29;2.35;;;1.42;;
40533;SDS011;26233;51.894;10.192;2023-04-25T12:03:58;2.25;;;1.40;;
40533;SDS011;26233;51.894;10.192;2023-04-25T12:06:38;2.85;;;1.40;;
40533;SDS011;26233;51.894;10.192;2023-04-25T12:09:07;1.88;;;1.30;;
40533;SDS011;26233;51.894;10.192;2023-04-25T12:11:42;2.80;;;1.40;;
40533;SDS011;26233;51.894;10.192;2023-04-25T12:14:10;3.03;;;1.30;;
40533;SDS011;26233;51.894;10.192;2023-04-25T12:16:41;1.88;;;1.30;;
40533;SDS011;26233;51.894;10.192;2023-04-25T12:19:08;1.90;;;1.27;;
40533;SDS011;26233;51.894;10.192;2023-04-25T12:21:41;2.00;;;1.27;;
40533;SDS011;26233;51.894;10.192;2023-04-25T12:24:11;2.75;;;1.27;;
40533;SDS011;26233;51.894;10.192;2023-04-25T12:26:48;2.63;;;1.42;;
40533;SDS011;26233;51.894;10.192;2023-04-25T12:29:20;1.92;;;1.17;;
40533;SDS011;26233;51.894;10.192;2023-04-25T12:31:50;1.73;;;1.23;;
40533;SDS011;26233;51.894;10.192;2023-04-25T12:34:21;2.20;;;1.15;;
40533;SDS011;26233;51.894;10.192;2023-04-25T12:36:49;3.50;;;1.33;;
40533;SDS011;26233;51.894;10.192;2023-04-25T12:39:17;2.42;;;1.20;;
40533;SDS011;26233;51.894;10.192;2023-04-25T12:41:46;3.88;;;1.40;;
40533;SDS011;26233;51.894;10.192;2023-04-25T12:44:14;1.40;;;1.20;;
40533;SDS011;26233;51.894;10.192;2023-04-25T12:46:42;1.70;;;1.42;;
40533;SDS011;26233;51.894;10.192;2023-04-25T12:49:12;1.92;;;1.27;;
40533;SDS011;26233;51.894;10.192;2023-04-25T12:51:41;1.70;;;1.13;;
40533;SDS011;26233;51.894;10.192;2023-04-25T12:54:08;2.92;;;1.48;;
40533;SDS011;26233;51.894;10.192;2023-04-25T12:56:35;2.28;;;1.58;;
40533;SDS011;26233;51.894;10.192;2023-04-25T12:59:02;2.28;;;1.50;;
40533;SDS011;26233;51.894;10.192;2023-04-25T13:01:29;2.50;;;1.40;;
40533;SDS011;26233;51.894;10.192;2023-04-25T13:03:57;1.80;;;1.30;;
40533;SDS011;26233;51.894;10.192;2023-04-25T13:06:24;2.67;;;1.42;;
40533;SDS011;26233;51.894;10.192;2023-04-25T13:08:52;1.75;;;1.30;;
40533;SDS011;26233;51.894;10.192;2023-04-25T13:11:20;2.38;;;1.40;;
40533;SDS011;26233;51.894;10.192;2023-04-25T13:13:47;1.90;;;1.30;;
40533;SDS011;26233;51.894;10.192;2023-04-25T13:16:14;2.30;;;1.30;;
40533;SDS011;26233;51.894;10.192;2023-04-25T13:18:41;2.80;;;1.40;;
40533;SDS011;26233;51.894;10.192;2023-04-25T13:21:09;2.88;;;1.50;;
40533;SDS011;26233;51.894;10.192;2023-04-25T13:23:37;2.78;;;1.40;;
40533;SDS011;26233;51.894;10.192;2023-04-25T13:26:05;2.53;;;1.60;;
40533;SDS011;26233;51.894;10.192;2023-04-25T13:28:33;2.78;;;1.38;;
40533;SDS011;26233;51.894;10.192;2023-04-25T13:31:00;2.28;;;1.23;;
40533;SDS011;26233;51.894;10.192;2023-04-25T13:33:27;2.38;;;1.40;;
40533;SDS011;26233;51.894;10.192;2023-04-25T13:35:54;1.45;;;1.20;;
40533;SDS011;26233;51.894;10.192;2023-04-25T13:38:22;1.85;;;1.23;;
40533;SDS011;26233;51.894;10.192;2023-04-25T13:40:50;1.25;;;1.15;;
40533;SDS011;26233;51.894;10.192;2023-04-25T13:43:20;3.15;;;1.30;;
40533;SDS011;26233;51.894;10.192;2023-04-25T13:45:48;3.38;;;1.40;;
40533;SDS011;26233;51.894;10.192;2023-04-25T13:48:16;2.05;;;1.20;;
40533;SDS011;26233;51.894;10.192;2023-04-25T13:50:44;3.00;;;1.30;;
40533;SDS011;26233;51.894;10.192;2023-04-25T13:53:11;1.98;;;1.25;;
40533;SDS011;26233;51.894;10.192;2023-04-25T13:55:39;2.53;;;1.40;;
40533;SDS011;26233;51.894;10.192;2023-04-25T13:58:06;1.98;;;1.23;;
40533;SDS011;26233;51.894;10.192;2023-04-25T14:00:36;1.27;;;1.10;;
40533;SDS011;26233;51.894;10.192;2023-04-25T14:03:05;2.53;;;1.20;;
40533;SDS011;26233;51.894;10.192;2023-04-25T14:05:33;1.92;;;1.10;;
40533;SDS011;26233;51.894;10.192;2023-04-25T14:08:05;2.10;;;1.10;;
40533;SDS011;26233;51.894;10.192;2023-04-25T14:10:33;2.10;;;1.10;;
40533;SDS011;26233;51.894;10.192;2023-04-25T14:13:00;1.40;;;0.90;;
40533;SDS011;26233;51.894;10.192;2023-04-25T14:15:28;1.23;;;1.00;;
40533;SDS011;26233;51.894;10.192;2023-04-25T14:17:58;1.48;;;1.00;;
40533;SDS011;26233;51.894;10.192;2023-04-25T14:20:26;2.05;;;1.02;;
40533;SDS011;26233;51.894;10.192;2023-04-25T14:22:53;2.65;;;1.23;;
40533;SDS011;26233;51.894;10.192;2023-04-25T14:25:23;1.48;;;0.90;;
40533;SDS011;26233;51.894;10.192;2023-04-25T14:27:50;2.38;;;1.30;;
40533;SDS011;26233;51.894;10.192;2023-04-25T14:30:18;2.05;;;1.10;;
40533;SDS011;26233;51.894;10.192;2023-04-25T14:32:46;2.03;;;1.10;;
40533;SDS011;26233;51.894;10.192;2023-04-25T14:35:15;1.73;;;1.20;;
40533;SDS011;26233;51.894;10.192;2023-04-25T14:37:43;2.65;;;1.25;;
40533;SDS011;26233;51.894;10.192;2023-04-25T14:40:10;1.85;;;1.00;;